Ocean King D — V7TV6 — position and weather

sailwx.info

Track history (hours):
 
Tides and Currents Weather Stations Pressure Air Temp Water Temp Dewpoint Dewpoint Depression Visibility Wind Speed Wind Dir Waves Ship Positions

Ocean King D

Last reported at 2015-Jul-26 05:32 UTC. Time now 2015-Jul-28 05:48 UTC.
Position N 03°07' E 100°42'.

Length 190 m; draft 8.8 m.

Type: Cargo ship. MMSI: 538003892.

Date/timePositionNaut miles runAvg speedWind from/ knotsBaromVisibWave heightAir tempDewpointWater temp
2015-Jul-26 05:32N 03°07' E 100°42'2110.4
2015-Jul-26 03:33N 02°53' E 100°57'2512.3
2015-Jul-26 01:33N 02°40' E 101°18'2613.2
2015-Jul-25 23:33N 02°26' E 101°40'14513.2
2015-Jul-25 12:33N 01°09' E 103°43'1212.6
2015-Jul-25 11:33N 01°14' E 103°54'6 6.0
2015-Jul-25 10:32N 01°17' E 103°59'0 0.1
2015-Jul-25 09:29N 01°17' E 103°59'0 0.0
2015-Jul-25 08:32N 01°17' E 103°59'0 0.1
2015-Jul-25 07:26N 01°17' E 103°59'0 0.1
2015-Jul-25 06:32N 01°17' E 103°59'0 0.1
2015-Jul-25 05:20N 01°17' E 103°59'0 0.1
2015-Jul-25 04:26N 01°17' E 103°59'0 0.0
2015-Jul-25 03:14N 01°17' E 103°59'0 0.1
2015-Jul-25 02:17N 01°17' E 103°59'0 0.1
2015-Jul-25 01:20N 01°17' E 103°60'0 0.1
2015-Jul-25 00:29N 01°17' E 103°60'0 0.0
2015-Jul-24 21:17N 01°17' E 103°60'0 0.1
2015-Jul-24 20:32N 01°17' E 103°60'5 5.6
2015-Jul-24 19:33N 01°17' E 104°05'  
2015-Jul-17 02:26N 30°46' E 122°57'37 9.3
2015-Jul-16 22:24N 31°06' E 122°20'1011.7
2015-Jul-16 21:33N 31°11' E 122°10'1212.4
2015-Jul-16 20:33N 31°15' E 121°57'1313.1
2015-Jul-16 19:33N 31°19' E 121°42'1110.7
2015-Jul-16 18:33N 31°25' E 121°31'9 8.6
2015-Jul-16 17:33N 31°30' E 121°23'1 0.7
2015-Jul-16 16:31N 31°30' E 121°22'0 0.0
2015-Jul-16 15:31N 31°30' E 121°22'0 0.0
2015-Jul-16 14:31N 31°30' E 121°22'0 0.0
2015-Jul-16 13:28N 31°30' E 121°22'0 0.0
2015-Jul-16 12:31N 31°30' E 121°22'0 0.0
2015-Jul-16 11:31N 31°30' E 121°22'0 0.0
2015-Jul-16 10:31N 31°30' E 121°22'0 0.0
2015-Jul-16 09:28N 31°30' E 121°22'0 0.0
2015-Jul-16 08:28N 31°30' E 121°22'0 0.0
2015-Jul-16 07:22N 31°30' E 121°22'0 0.0
2015-Jul-16 06:31N 31°30' E 121°22'  
Track history (hours):
 
Tides and Currents Weather Stations Pressure Air Temp Water Temp Dewpoint Dewpoint Depression Visibility Wind Speed Wind Dir Waves Ship Positions

Ocean King D

Last reported at 2015-Jul-26 05:32 UTC. Time now 2015-Jul-28 05:48 UTC.
Position N 03°07' E 100°42'.

Length 190 m; draft 8.8 m.

Type: Cargo ship. MMSI: 538003892.

Date/timePositionNaut miles runAvg speedWind from/ knotsBaromVisibWave heightAir tempDewpointWater temp
2015-Jul-26 05:32N 03°07' E 100°42'2110.4
2015-Jul-26 03:33N 02°53' E 100°57'2512.3
2015-Jul-26 01:33N 02°40' E 101°18'2613.2
2015-Jul-25 23:33N 02°26' E 101°40'14513.2
2015-Jul-25 12:33N 01°09' E 103°43'1212.6
2015-Jul-25 11:33N 01°14' E 103°54'6 6.0
2015-Jul-25 10:32N 01°17' E 103°59'0 0.1
2015-Jul-25 09:29N 01°17' E 103°59'0 0.0
2015-Jul-25 08:32N 01°17' E 103°59'0 0.1
2015-Jul-25 07:26N 01°17' E 103°59'0 0.1
2015-Jul-25 06:32N 01°17' E 103°59'0 0.1
2015-Jul-25 05:20N 01°17' E 103°59'0 0.1
2015-Jul-25 04:26N 01°17' E 103°59'0 0.0
2015-Jul-25 03:14N 01°17' E 103°59'0 0.1
2015-Jul-25 02:17N 01°17' E 103°59'0 0.1
2015-Jul-25 01:20N 01°17' E 103°60'0 0.1
2015-Jul-25 00:29N 01°17' E 103°60'0 0.0
2015-Jul-24 21:17N 01°17' E 103°60'0 0.1
2015-Jul-24 20:32N 01°17' E 103°60'5 5.6
2015-Jul-24 19:33N 01°17' E 104°05'  
2015-Jul-17 02:26N 30°46' E 122°57'37 9.3
2015-Jul-16 22:24N 31°06' E 122°20'1011.7
2015-Jul-16 21:33N 31°11' E 122°10'1212.4
2015-Jul-16 20:33N 31°15' E 121°57'1313.1
2015-Jul-16 19:33N 31°19' E 121°42'1110.7
2015-Jul-16 18:33N 31°25' E 121°31'9 8.6
2015-Jul-16 17:33N 31°30' E 121°23'1 0.7
2015-Jul-16 16:31N 31°30' E 121°22'0 0.0
2015-Jul-16 15:31N 31°30' E 121°22'0 0.0
2015-Jul-16 14:31N 31°30' E 121°22'0 0.0
2015-Jul-16 13:28N 31°30' E 121°22'0 0.0
2015-Jul-16 12:31N 31°30' E 121°22'0 0.0
2015-Jul-16 11:31N 31°30' E 121°22'0 0.0
2015-Jul-16 10:31N 31°30' E 121°22'0 0.0
2015-Jul-16 09:28N 31°30' E 121°22'0 0.0
2015-Jul-16 08:28N 31°30' E 121°22'0 0.0
2015-Jul-16 07:22N 31°30' E 121°22'0 0.0
2015-Jul-16 06:31N 31°30' E 121°22'  

Dump ship's entire track history